Time;durP1;ratioP1;P1;durP2;ratioP2;P2;SDS_P1;SDS_P2;PMS_P1;PMS_P2;Temp;Humidity;BMP_temperature;BMP_pressure;BME280_temperature;BME280_humidity;BME280_pressure;Samples;Min_cycle;Max_cycle;Signal;HPM_P1;HPM_P2
2024/03/06 08:29:06;;;;;;;24.57;13.07;;;;;;;8.53;100.00;99203.84;5107923;28;20572;-76
2024/03/06 08:31:34;;;;;;;19.67;11.67;;;;;;;9.04;100.00;99204.81;5107415;28;39969;-77
2024/03/06 08:34:02;;;;;;;18.13;11.73;;;;;;;9.54;100.00;99205.69;5093342;28;43009;-77
2024/03/06 08:36:29;;;;;;;18.90;11.53;;;;;;;9.94;100.00;99216.81;5110295;28;42412;-78
2024/03/06 08:38:57;;;;;;;16.97;10.97;;;;;;;10.20;100.00;99213.63;5089926;28;42442;-77
2024/03/06 08:41:24;;;;;;;16.23;10.87;;;;;;;10.39;100.00;99216.94;5107415;28;40642;-77
2024/03/06 08:43:52;;;;;;;15.70;11.13;;;;;;;10.49;100.00;99209.34;5077958;28;43500;-76
2024/03/06 08:46:20;;;;;;;16.87;10.80;;;;;;;10.57;100.00;99227.44;5087025;28;43724;-77
2024/03/06 08:48:48;;;;;;;17.43;10.67;;;;;;;10.48;100.00;99212.09;5079517;28;42840;-77
2024/03/06 08:51:16;;;;;;;14.87;9.63;;;;;;;10.58;100.00;99235.31;5090369;28;41046;-78
2024/03/06 08:53:44;;;;;;;14.30;9.83;;;;;;;10.62;100.00;99236.00;5115546;27;42111;-76
2024/03/06 08:56:11;;;;;;;15.93;9.80;;;;;;;10.63;100.00;99233.25;5087796;28;43284;-80
2024/03/06 08:58:39;;;;;;;13.77;9.73;;;;;;;10.61;100.00;99226.34;5092533;28;41089;-78
2024/03/06 09:01:06;;;;;;;14.77;9.17;;;;;;;10.73;100.00;99249.50;5107609;28;40296;-77
2024/03/06 09:03:35;;;;;;;13.97;9.13;;;;;;;10.75;100.00;99242.31;5102740;28;40571;-81
2024/03/06 09:06:03;;;;;;;18.00;12.27;;;;;;;10.74;99.48;99251.19;5087980;28;43947;-79
2024/03/06 09:08:31;;;;;;;20.00;12.17;;;;;;;10.73;99.27;99253.00;5089393;28;42318;-84
2024/03/06 09:10:59;;;;;;;13.97;9.60;;;;;;;10.76;97.85;99255.44;5108450;28;40726;-78
2024/03/06 09:13:26;;;;;;;13.77;9.90;;;;;;;10.78;97.42;99264.16;5108021;28;42706;-77
2024/03/06 09:15:54;;;;;;;16.50;10.30;;;;;;;10.74;96.51;99257.34;5106552;28;42747;-76
2024/03/06 09:18:21;;;;;;;13.33;8.80;;;;;;;10.78;96.62;99260.66;5089540;28;42277;-76
2024/03/06 09:20:50;;;;;;;15.07;9.90;;;;;;;10.75;96.69;99258.22;5089363;28;40325;-78
2024/03/06 09:23:17;;;;;;;16.93;10.20;;;;;;;10.82;95.94;99264.84;5090070;28;40714;-80
2024/03/06 09:25:45;;;;;;;15.40;9.63;;;;;;;10.95;96.49;99271.16;5089212;28;43613;-79
2024/03/06 09:28:13;;;;;;;14.80;10.20;;;;;;;11.05;95.69;99274.97;5106277;28;43142;-78
2024/03/06 09:30:41;;;;;;;13.80;9.80;;;;;;;11.19;94.88;99273.31;5107730;28;40770;-79
2024/03/06 09:33:09;;;;;;;16.13;9.83;;;;;;;11.18;93.48;99269.81;5089587;28;40914;-77
2024/03/06 09:35:36;;;;;;;11.87;9.40;;;;;;;11.15;94.20;99256.75;5106089;28;42659;-78
2024/03/06 09:38:05;;;;;;;12.60;9.40;;;;;;;11.28;93.55;99280.75;5107743;28;42209;-77
2024/03/06 09:40:33;;;;;;;16.17;9.77;;;;;;;11.31;93.71;99284.06;5074673;28;39874;-77
2024/03/06 09:43:00;;;;;;;17.77;11.03;;;;;;;11.33;92.98;99287.50;5075378;28;43032;-77
2024/03/06 09:45:28;;;;;;;16.43;10.27;;;;;;;11.36;91.98;99291.78;5093626;28;43816;-81
2024/03/06 09:47:55;;;;;;;15.67;10.03;;;;;;;11.38;91.67;99287.19;5075691;28;41123;-77
2024/03/06 09:50:26;;;;;;;17.70;10.13;;;;;;;11.44;91.16;99284.22;5091971;28;41401;-78
2024/03/06 09:52:55;;;;;;;14.33;10.10;;;;;;;11.47;90.42;99274.28;5091865;28;41890;-77
2024/03/06 09:55:25;;;;;;;15.53;10.27;;;;;;;11.71;90.29;99292.31;5093344;28;43701;-80
2024/03/06 09:57:53;;;;;;;15.73;9.60;;;;;;;11.82;90.23;99301.38;5092680;28;44341;-81
2024/03/06 10:00:21;;;;;;;15.97;10.33;;;;;;;11.89;89.93;99301.84;5092237;28;39502;-81
2024/03/06 10:02:55;;;;;;;13.87;8.77;;;;;;;11.92;89.77;99303.47;5093923;28;41861;-79
2024/03/06 10:05:24;;;;;;;13.90;9.40;;;;;;;11.92;89.15;99300.81;5092567;28;43840;-80
2024/03/06 10:07:52;;;;;;;15.53;10.53;;;;;;;11.78;87.68;99299.84;5126625;27;42787;-76
2024/03/06 10:10:22;;;;;;;15.63;10.30;;;;;;;11.79;88.18;99296.25;5074770;28;40032;-77
2024/03/06 10:12:52;;;;;;;12.57;8.77;;;;;;;11.90;87.33;99313.31;5075334;28;40435;-77
2024/03/06 10:15:21;;;;;;;12.30;9.27;;;;;;;11.87;87.53;99293.97;5091799;28;42632;-83
2024/03/06 10:17:49;;;;;;;12.53;8.57;;;;;;;12.05;87.78;99307.94;5092183;28;42221;-77
2024/03/06 10:20:21;;;;;;;15.93;10.20;;;;;;;11.99;86.72;99302.97;5075167;28;41586;-77
2024/03/06 10:22:51;;;;;;;15.10;10.00;;;;;;;12.12;86.80;99319.00;5075176;28;42110;-82
2024/03/06 10:25:21;;;;;;;15.40;9.80;;;;;;;12.24;86.83;99315.59;5091930;28;42774;-77
2024/03/06 10:28:07;;;;;;;12.90;9.13;;;;;;;12.26;85.72;99300.44;5091697;28;42418;-81
2024/03/06 10:30:35;;;;;;;15.83;10.20;;;;;;;12.44;85.83;99312.56;5074810;28;40668;-79
2024/03/06 10:33:04;;;;;;;16.17;11.00;;;;;;;12.66;85.42;99324.50;5092055;28;42744;-79
2024/03/06 10:35:32;;;;;;;14.93;10.00;;;;;;;12.83;85.13;99318.97;5091987;28;44057;-78
2024/03/06 10:38:01;;;;;;;14.80;9.80;;;;;;;13.02;83.74;99319.47;5093216;28;42798;-77
2024/03/06 10:40:32;;;;;;;17.23;10.23;;;;;;;13.19;82.57;99321.06;5108652;28;39342;-77
2024/03/06 10:43:00;;;;;;;14.37;9.97;;;;;;;13.38;81.63;99326.00;5091863;28;42075;-80
2024/03/06 10:45:41;;;;;;;15.57;10.30;;;;;;;13.53;81.17;99311.69;5091650;28;43126;-78
2024/03/06 10:48:11;;;;;;;13.93;9.80;;;;;;;13.88;79.64;99318.13;5074826;28;41470;-78
2024/03/06 10:50:41;;;;;;;11.47;9.03;;;;;;;14.14;79.87;99328.78;5073963;28;38916;-79
2024/03/06 10:53:11;;;;;;;13.40;10.10;;;;;;;14.29;77.00;99338.38;5092916;28;43036;-78
2024/03/06 10:55:39;;;;;;;16.07;11.07;;;;;;;14.39;75.97;99339.44;5091506;28;41771;-78
2024/03/06 10:58:09;;;;;;;15.50;10.23;;;;;;;14.38;74.10;99346.59;5091878;28;43135;-80
2024/03/06 11:00:40;;;;;;;12.53;9.60;;;;;;;14.44;74.77;99339.16;5091807;28;39882;-79
2024/03/06 11:03:11;;;;;;;14.20;9.70;;;;;;;14.50;74.07;99344.03;5126056;27;41524;-78
2024/03/06 11:05:40;;;;;;;12.50;9.17;;;;;;;14.54;73.48;99342.88;5108225;28;41990;-78
2024/03/06 11:08:08;;;;;;;12.60;9.37;;;;;;;14.60;71.98;99348.59;5074748;28;42779;-79
2024/03/06 11:10:38;;;;;;;15.00;10.43;;;;;;;14.65;70.77;99351.81;5093367;28;40056;-78
2024/03/06 11:13:22;;;;;;;14.97;10.30;;;;;;;14.76;71.80;99358.19;5091556;28;42996;-79
2024/03/06 11:15:52;;;;;;;12.80;9.33;;;;;;;14.83;69.90;99363.00;5095633;28;43950;-80
2024/03/06 11:18:42;;;;;;;14.67;9.80;;;;;;;14.92;71.09;99356.13;5096095;28;41803;-78
2024/03/06 11:21:33;;;;;;;12.73;9.47;;;;;;;14.87;71.69;99359.13;5091805;28;39095;-79
2024/03/06 11:24:14;;;;;;;17.00;10.17;;;;;;;14.79;71.86;99347.31;5074930;28;40515;-79
2024/03/06 11:26:44;;;;;;;17.27;10.73;;;;;;;14.73;70.37;99360.09;5088638;28;43944;-80
2024/03/06 11:29:11;;;;;;;16.80;10.60;;;;;;;14.68;70.04;99356.94;5090975;28;43456;-81
2024/03/06 11:31:40;;;;;;;14.40;9.30;;;;;;;14.57;70.73;99350.66;5091786;28;39272;-79
2024/03/06 11:34:09;;;;;;;15.40;10.20;;;;;;;14.50;70.00;99355.56;5090832;28;42059;-79
2024/03/06 11:36:37;;;;;;;13.53;9.63;;;;;;;14.38;70.58;99354.56;5091175;28;42469;-81
2024/03/06 11:39:06;;;;;;;12.97;9.23;;;;;;;14.37;72.29;99349.34;5092182;28;42233;-79
2024/03/06 11:41:48;;;;;;;14.03;10.23;;;;;;;14.34;72.48;99350.41;5125512;27;39769;-78
2024/03/06 11:44:16;;;;;;;15.50;10.40;;;;;;;14.26;71.84;99349.25;5073739;28;42289;-80
2024/03/06 11:46:46;;;;;;;13.37;9.47;;;;;;;14.21;72.93;99346.06;5091187;28;43915;-81
2024/03/06 11:49:20;;;;;;;14.57;10.07;;;;;;;14.24;73.00;99340.50;5073673;28;41248;-80
2024/03/06 11:51:48;;;;;;;14.53;9.80;;;;;;;14.27;73.63;99340.31;5090961;28;39211;-78
2024/03/06 11:54:16;;;;;;;15.13;10.23;;;;;;;14.36;73.92;99344.97;5090610;28;41983;-79
2024/03/06 11:56:46;;;;;;;12.33;8.90;;;;;;;14.47;73.17;99334.44;5090855;28;43128;-79
2024/03/06 11:59:14;;;;;;;14.20;9.17;;;;;;;14.70;73.44;99338.16;5090824;28;40881;-80
2024/03/06 12:01:42;;;;;;;15.40;10.47;;;;;;;14.89;71.69;99348.34;5074166;28;40073;-83
2024/03/06 12:04:11;;;;;;;15.80;10.37;;;;;;;15.07;71.64;99344.34;5073432;28;41865;-80
2024/03/06 12:06:39;;;;;;;16.17;10.60;;;;;;;15.09;67.98;99355.75;5090609;28;41850;-84
2024/03/06 12:09:10;;;;;;;14.43;10.00;;;;;;;15.07;67.43;99349.69;5073496;28;44158;-82
2024/03/06 12:11:38;;;;;;;14.37;9.83;;;;;;;15.25;67.83;99361.66;5088966;28;40188;-83
2024/03/06 12:14:06;;;;;;;12.60;9.70;;;;;;;15.25;68.30;99342.97;5074173;28;42112;-84
2024/03/06 12:16:33;;;;;;;14.60;10.30;;;;;;;15.41;66.86;99356.91;5092484;28;43007;-79
2024/03/06 12:19:01;;;;;;;14.60;10.13;;;;;;;15.37;64.83;99375.91;5074714;28;41349;-84
2024/03/06 12:21:32;;;;;;;14.47;10.47;;;;;;;15.14;63.87;99356.25;5091206;28;40234;-91
2024/03/06 12:24:06;;;;;;;14.80;10.33;;;;;;;15.15;64.72;99360.63;5088458;28;41371;-78
2024/03/06 12:26:40;;;;;;;13.50;10.47;;;;;;;15.02;64.43;99366.03;5090003;28;42897;-79
2024/03/06 12:29:08;;;;;;;16.53;11.03;;;;;;;14.83;64.49;99359.47;5088265;28;42644;-80
2024/03/06 12:31:37;;;;;;;13.97;10.00;;;;;;;14.79;64.53;99369.50;5090872;28;40901;-84
2024/03/06 12:34:06;;;;;;;14.33;10.20;;;;;;;14.74;64.71;99367.13;5092020;28;42352;-81
2024/03/06 12:36:35;;;;;;;15.53;10.73;;;;;;;14.65;64.24;99365.16;5057815;28;42938;-79
2024/03/06 12:39:12;;;;;;;13.37;10.07;;;;;;;14.58;63.88;99369.22;5070337;28;42089;-83
2024/03/06 12:41:40;;;;;;;15.90;10.97;;;;;;;14.66;63.40;99374.00;5082347;28;40651;-83
2024/03/06 12:44:07;;;;;;;14.37;10.97;;;;;;;14.80;62.12;99381.00;5090821;28;42738;-82
2024/03/06 12:46:35;;;;;;;14.20;10.60;;;;;;;14.87;62.33;99371.59;5073050;28;42365;-84
2024/03/06 12:49:03;;;;;;;13.37;10.63;;;;;;;14.85;62.69;99362.84;5091253;28;43025;-81
2024/03/06 12:51:32;;;;;;;15.30;10.10;;;;;;;14.86;62.20;99367.22;5090488;28;40571;-81
2024/03/06 12:54:03;;;;;;;13.47;10.13;;;;;;;15.01;62.86;99377.66;5073507;28;41674;-81
2024/03/06 12:56:30;;;;;;;13.67;9.73;;;;;;;15.01;62.14;99374.13;5086621;28;42303;-83
2024/03/06 12:58:58;;;;;;;13.80;10.03;;;;;;;15.10;62.19;99373.44;5091024;28;43040;-79
2024/03/06 13:01:25;;;;;;;14.37;10.20;;;;;;;15.03;62.03;99353.53;5091333;28;40002;-80
2024/03/06 13:03:53;;;;;;;13.87;9.97;;;;;;;15.08;61.50;99354.06;5089808;28;43529;-78
2024/03/06 13:06:21;;;;;;;15.40;10.33;;;;;;;15.14;60.91;99352.75;5089262;28;43236;-78
2024/03/06 13:08:49;;;;;;;13.60;9.60;;;;;;;15.41;60.20;99369.41;5089855;28;42540;-85
2024/03/06 13:11:19;;;;;;;13.70;9.67;;;;;;;15.80;59.48;99385.16;5090185;28;40481;-85
2024/03/06 13:13:47;;;;;;;14.63;9.93;;;;;;;16.09;59.06;99368.69;5073820;28;41578;-82
2024/03/06 13:16:14;;;;;;;13.33;9.63;;;;;;;16.33;56.94;99363.28;5076348;28;41676;-78
2024/03/06 13:18:42;;;;;;;14.20;9.53;;;;;;;16.60;57.03;99377.16;5076639;28;41257;-83
2024/03/06 13:21:09;;;;;;;13.70;9.87;;;;;;;16.74;56.77;99370.75;5110542;28;40614;-79
2024/03/06 13:23:37;;;;;;;16.07;10.03;;;;;;;17.01;54.85;99395.28;5092854;28;41788;-81
2024/03/06 13:26:05;;;;;;;15.13;10.70;;;;;;;17.24;53.91;99391.59;5094240;28;43763;-80
2024/03/06 13:28:34;;;;;;;13.90;9.47;;;;;;;17.41;53.63;99392.91;5091769;28;43333;-77
2024/03/06 13:31:02;;;;;;;13.50;9.37;;;;;;;17.50;54.65;99389.47;5092636;28;38741;-77
2024/03/06 13:33:30;;;;;;;13.30;10.00;;;;;;;17.42;53.53;99394.63;5093081;28;41923;-84
2024/03/06 13:35:57;;;;;;;11.80;8.60;;;;;;;17.33;53.61;99389.16;5093000;28;43818;-79
2024/03/06 13:38:25;;;;;;;14.87;10.37;;;;;;;17.18;53.02;99407.34;5109818;28;43313;-80
2024/03/06 13:40:52;;;;;;;13.13;9.53;;;;;;;17.03;53.62;99392.50;5092694;28;39735;-81
2024/03/06 13:43:23;;;;;;;12.87;9.67;;;;;;;16.88;52.86;99397.25;5075729;28;40948;-79
2024/03/06 13:45:52;;;;;;;13.83;10.00;;;;;;;16.86;53.12;99402.72;5093614;28;42822;-85
2024/03/06 13:48:22;;;;;;;14.80;10.30;;;;;;;16.85;54.10;99382.28;5093030;28;42527;-78
2024/03/06 13:50:49;;;;;;;13.73;10.17;;;;;;;16.99;53.28;99407.94;5092745;28;39894;-83
2024/03/06 13:53:17;;;;;;;15.33;10.27;;;;;;;17.03;52.78;99403.22;5076490;28;42522;-78
2024/03/06 13:55:44;;;;;;;14.77;10.60;;;;;;;17.08;53.28;99401.84;5084236;28;43794;-80
2024/03/06 13:58:12;;;;;;;15.37;10.87;;;;;;;17.11;51.43;99411.47;5080030;28;41481;-80
2024/03/06 14:00:39;;;;;;;13.23;9.63;;;;;;;17.04;51.58;99411.13;5093968;28;41130;-79
2024/03/06 14:03:14;;;;;;;13.37;9.83;;;;;;;17.01;52.18;99410.50;5075121;28;40795;-82
2024/03/06 14:05:42;;;;;;;13.77;9.97;;;;;;;16.79;51.55;99406.88;5093906;28;42633;-82
2024/03/06 14:08:11;;;;;;;12.63;9.50;;;;;;;16.60;52.61;99406.56;5092145;28;43245;-78
2024/03/06 14:10:40;;;;;;;13.20;9.40;;;;;;;16.29;51.08;99405.44;5093577;28;41730;-82
2024/03/06 14:13:08;;;;;;;13.77;9.17;;;;;;;16.39;52.01;99397.56;5092099;28;41325;-80
2024/03/06 14:15:36;;;;;;;14.20;9.43;;;;;;;16.66;51.62;99408.81;5091716;28;42894;-79
2024/03/06 14:18:04;;;;;;;12.13;8.97;;;;;;;17.07;51.38;99404.63;5108781;28;41154;-78
2024/03/06 14:20:33;;;;;;;12.67;8.63;;;;;;;17.80;48.60;99431.63;5091904;28;38726;-83
2024/03/06 14:23:00;;;;;;;12.40;8.90;;;;;;;18.63;47.21;99434.41;5074959;28;40389;-81
2024/03/06 14:25:29;;;;;;;10.77;8.63;;;;;;;19.55;45.10;99435.22;5074105;28;41673;-78
2024/03/06 14:27:57;;;;;;;12.30;8.70;;;;;;;20.67;44.52;99445.41;5092570;28;42263;-80
2024/03/06 14:30:24;;;;;;;11.60;8.80;;;;;;;21.39;41.57;99451.94;5073935;28;39100;-80
2024/03/06 14:32:52;;;;;;;12.67;9.90;;;;;;;22.07;39.31;99472.13;5075080;28;40858;-79
2024/03/06 14:35:19;;;;;;;11.17;8.40;;;;;;;22.48;39.65;99459.84;5091146;28;42810;-76
2024/03/06 14:37:49;;;;;;;11.20;8.63;;;;;;;22.77;39.95;99466.81;5092093;28;43178;-81
2024/03/06 14:40:16;;;;;;;12.40;8.90;;;;;;;22.31;38.69;99471.50;5092490;28;40855;-79
2024/03/06 14:42:44;;;;;;;13.47;9.87;;;;;;;21.71;40.29;99446.09;5091857;28;42699;-77
2024/03/06 14:45:11;;;;;;;10.50;8.23;;;;;;;21.64;40.43;99455.78;5074194;28;41879;-79
2024/03/06 14:47:39;;;;;;;9.63;7.63;;;;;;;21.36;41.26;99444.19;5091705;28;42713;-79
2024/03/06 14:50:07;;;;;;;10.97;8.33;;;;;;;20.99;41.21;99453.13;5092715;28;40031;-78
2024/03/06 14:52:35;;;;;;;10.87;8.73;;;;;;;20.49;42.59;99440.91;5091230;28;41063;-77
2024/03/06 14:55:08;;;;;;;15.10;9.73;;;;;;;20.07;43.39;99435.81;5074020;28;42195;-79
2024/03/06 14:57:36;;;;;;;11.13;8.20;;;;;;;19.69;43.36;99434.81;5088428;28;42928;-78
2024/03/06 15:00:06;;;;;;;13.47;8.87;;;;;;;19.32;43.46;99439.06;5073933;28;40574;-85
2024/03/06 15:02:34;;;;;;;11.47;8.90;;;;;;;18.76;42.66;99449.47;5091712;28;41449;-79
2024/03/06 15:05:02;;;;;;;11.43;8.87;;;;;;;18.29;44.05;99443.63;5107666;28;44786;-78
2024/03/06 15:07:29;;;;;;;14.40;9.80;;;;;;;17.82;44.74;99436.88;5092732;28;42522;-78
2024/03/06 15:09:58;;;;;;;12.10;8.77;;;;;;;17.55;46.15;99424.78;5074774;28;38924;-83
2024/03/06 15:12:27;;;;;;;14.03;9.97;;;;;;;17.39;46.42;99431.50;5073813;28;40501;-80
2024/03/06 15:14:56;;;;;;;14.60;9.87;;;;;;;17.07;46.51;99428.72;5073956;28;42588;-79
2024/03/06 15:17:25;;;;;;;12.10;8.93;;;;;;;16.78;47.40;99421.22;5091256;28;42340;-82
2024/03/06 15:19:53;;;;;;;13.73;10.13;;;;;;;16.40;48.34;99407.28;5091146;28;40124;-78
2024/03/06 15:22:20;;;;;;;12.03;9.13;;;;;;;16.35;49.10;99420.13;5090618;28;42479;-78
2024/03/06 15:24:48;;;;;;;16.27;10.67;;;;;;;16.05;48.65;99418.88;5090861;28;44172;-83
2024/03/06 15:27:17;;;;;;;14.03;10.60;;;;;;;15.89;49.77;99422.81;5091815;28;42546;-81
2024/03/06 15:29:46;;;;;;;15.00;10.53;;;;;;;15.64;49.72;99399.75;5073864;28;39667;-79
2024/03/06 15:32:14;;;;;;;14.87;11.07;;;;;;;15.75;49.65;99407.81;5092222;28;42110;-81
2024/03/06 15:34:41;;;;;;;12.43;9.87;;;;;;;15.93;50.10;99417.13;5090974;28;42409;-84
2024/03/06 15:37:09;;;;;;;14.00;9.53;;;;;;;15.88;50.11;99403.25;5091276;28;42275;-85
2024/03/06 15:39:36;;;;;;;17.03;10.73;;;;;;;15.76;49.68;99425.53;5073967;28;39162;-81
2024/03/06 15:42:04;;;;;;;14.40;10.60;;;;;;;15.69;50.47;99425.16;5090815;28;42021;-78
2024/03/06 15:44:31;;;;;;;13.20;9.03;;;;;;;15.67;50.69;99424.41;5090452;28;42818;-87
2024/03/06 15:47:01;;;;;;;16.10;10.83;;;;;;;15.42;50.61;99412.00;5073727;28;42290;-80
2024/03/06 15:49:29;;;;;;;16.20;10.67;;;;;;;15.35;51.00;99426.72;5073661;28;40222;-81
2024/03/06 15:51:56;;;;;;;12.70;9.87;;;;;;;15.25;51.83;99423.03;5073562;28;39548;-80
2024/03/06 15:54:23;;;;;;;14.80;10.33;;;;;;;15.17;52.24;99416.56;5106969;28;43054;-85
2024/03/06 15:56:51;;;;;;;15.20;10.37;;;;;;;15.06;52.41;99414.66;5073280;28;42686;-83
2024/03/06 15:59:19;;;;;;;15.23;9.87;;;;;;;14.96;53.04;99413.63;5073663;28;40178;-82
2024/03/06 16:01:46;;;;;;;13.27;9.83;;;;;;;14.82;53.03;99411.09;5091835;28;41996;-82
2024/03/06 16:04:15;;;;;;;14.43;10.63;;;;;;;14.69;53.12;99406.63;5090332;28;42926;-82
2024/03/06 16:06:45;;;;;;;15.17;10.00;;;;;;;14.60;53.07;99409.91;5073487;28;41323;-85
2024/03/06 16:09:13;;;;;;;16.10;10.17;;;;;;;14.33;53.02;99398.50;5090372;28;40112;-78
2024/03/06 16:11:41;;;;;;;15.93;10.27;;;;;;;14.24;52.77;99405.31;5091678;28;42805;-82
2024/03/06 16:14:08;;;;;;;16.23;10.37;;;;;;;14.28;53.14;99421.94;5091681;28;43751;-84
2024/03/06 16:16:36;;;;;;;18.87;11.47;;;;;;;14.04;53.08;99408.47;5090362;28;42619;-80
2024/03/06 16:19:03;;;;;;;15.83;10.27;;;;;;;14.02;53.12;99421.91;5073372;28;39502;-80
2024/03/06 16:21:32;;;;;;;14.33;10.70;;;;;;;13.84;53.60;99423.16;5073242;28;41940;-82
2024/03/06 16:24:00;;;;;;;17.93;11.33;;;;;;;13.74;53.13;99430.00;5090317;28;43001;-83
2024/03/06 16:26:28;;;;;;;18.90;10.43;;;;;;;13.67;53.70;99436.72;5073231;28;43578;-83
2024/03/06 16:28:56;;;;;;;15.43;9.73;;;;;;;13.59;53.78;99426.59;5090000;28;40374;-80
2024/03/06 16:31:23;;;;;;;13.63;9.60;;;;;;;13.54;54.38;99430.50;5073556;28;41089;-80
2024/03/06 16:33:51;;;;;;;15.20;9.53;;;;;;;13.44;54.62;99432.06;5094866;28;42806;-84
2024/03/06 16:36:19;;;;;;;13.90;9.00;;;;;;;13.33;54.59;99426.56;5091894;28;41967;-78
2024/03/06 16:38:48;;;;;;;15.40;11.07;;;;;;;13.14;55.49;99426.84;5091457;28;40496;-81
2024/03/06 16:41:16;;;;;;;14.97;10.13;;;;;;;12.89;55.46;99416.91;5073654;28;41792;-78
2024/03/06 16:43:43;;;;;;;16.27;10.40;;;;;;;12.86;56.12;99427.72;5091256;28;42856;-81
2024/03/06 16:46:11;;;;;;;13.50;9.37;;;;;;;12.72;56.29;99425.09;5090121;28;41595;-86
2024/03/06 16:48:38;;;;;;;14.53;9.60;;;;;;;12.54;57.02;99411.16;5072960;28;38884;-79
2024/03/06 16:51:05;;;;;;;14.67;9.40;;;;;;;12.50;57.19;99430.88;5093488;28;41939;-85
2024/03/06 16:53:33;;;;;;;12.87;9.37;;;;;;;12.37;57.67;99436.06;5094091;28;44087;-79
2024/03/06 16:56:02;;;;;;;12.87;8.93;;;;;;;12.16;57.88;99416.13;5094695;28;42152;-82
2024/03/06 16:58:30;;;;;;;13.40;9.93;;;;;;;12.10;58.25;99432.44;5127511;27;39789;-79
2024/03/06 17:00:57;;;;;;;13.77;9.47;;;;;;;12.00;58.43;99441.88;5094886;28;42271;-85
2024/03/06 17:03:24;;;;;;;13.47;8.57;;;;;;;11.80;58.75;99419.16;5076399;28;41703;-81
2024/03/06 17:05:52;;;;;;;12.70;8.50;;;;;;;11.80;58.52;99440.41;5076856;28;41564;-86
2024/03/06 17:08:19;;;;;;;12.07;8.43;;;;;;;11.68;59.79;99431.31;5094715;28;40069;-85
2024/03/06 17:10:48;;;;;;;12.93;10.27;;;;;;;11.56;59.75;99434.69;5094271;28;41621;-84
2024/03/06 17:13:17;;;;;;;14.77;9.40;;;;;;;11.47;59.94;99443.16;5093572;28;42874;-82
2024/03/06 17:15:44;;;;;;;14.80;9.00;;;;;;;11.38;60.06;99438.34;5093077;28;42575;-82
2024/03/06 17:18:12;;;;;;;12.83;9.13;;;;;;;11.26;59.86;99442.56;5094556;28;41005;-79
2024/03/06 17:20:40;;;;;;;12.70;8.40;;;;;;;11.20;59.97;99444.72;5092330;28;41793;-81
2024/03/06 17:23:07;;;;;;;11.80;8.33;;;;;;;11.09;60.17;99443.50;5093831;28;44095;-84
2024/03/06 17:25:35;;;;;;;13.17;8.80;;;;;;;10.99;60.45;99446.75;5093396;28;42230;-86
2024/03/06 17:28:03;;;;;;;11.30;7.93;;;;;;;10.92;60.73;99445.38;5076848;28;38620;-81
2024/03/06 17:30:32;;;;;;;11.60;7.57;;;;;;;10.83;60.65;99446.72;5093943;28;42749;-81
2024/03/06 17:32:59;;;;;;;12.17;8.27;;;;;;;10.76;60.82;99447.97;5093361;28;43513;-84
2024/03/06 17:35:27;;;;;;;13.57;9.47;;;;;;;10.67;60.92;99440.53;5076330;28;41187;-83
2024/03/06 17:37:54;;;;;;;13.73;9.10;;;;;;;10.60;62.31;99449.75;5076441;28;41207;-80
2024/03/06 17:40:25;;;;;;;15.70;9.67;;;;;;;10.44;63.87;99437.31;5094192;28;42663;-88
2024/03/06 17:42:52;;;;;;;16.50;10.87;;;;;;;10.42;64.33;99438.34;5093148;28;42999;-80
2024/03/06 17:45:20;;;;;;;18.87;11.17;;;;;;;10.35;64.23;99445.75;5075973;28;42531;-88
2024/03/06 17:47:49;;;;;;;14.97;9.40;;;;;;;10.30;64.02;99454.84;5076352;28;38615;-82
2024/03/06 17:50:16;;;;;;;13.50;9.20;;;;;;;10.17;64.42;99451.94;5075908;28;40669;-81
2024/03/06 17:52:44;;;;;;;13.93;9.47;;;;;;;10.19;64.41;99463.34;5075975;28;42760;-85
2024/03/06 17:55:12;;;;;;;15.63;10.13;;;;;;;10.13;64.96;99461.00;5092660;28;42119;-84
2024/03/06 17:57:45;;;;;;;17.13;10.93;;;;;;;10.07;65.61;99464.81;5093387;28;40946;-83
2024/03/06 18:00:13;;;;;;;13.40;9.47;;;;;;;10.01;65.67;99456.34;5075689;28;42093;-84
2024/03/06 18:02:41;;;;;;;16.63;11.03;;;;;;;9.96;67.61;99459.19;5093018;28;42793;-81
2024/03/06 18:05:10;;;;;;;18.23;12.10;;;;;;;9.97;67.31;99455.63;5093226;28;43192;-88
2024/03/06 18:07:38;;;;;;;17.60;12.57;;;;;;;9.94;67.96;99449.63;5094154;28;40293;-84
2024/03/06 18:10:07;;;;;;;15.87;11.50;;;;;;;10.06;67.88;99457.78;5093324;28;42026;-80
2024/03/06 18:12:34;;;;;;;16.43;11.90;;;;;;;10.11;67.64;99457.56;5074984;28;41810;-82
2024/03/06 18:15:02;;;;;;;15.07;10.73;;;;;;;10.26;67.55;99462.09;5092451;28;43261;-84
2024/03/06 18:17:31;;;;;;;17.10;11.37;;;;;;;10.31;67.68;99460.06;5075927;28;38930;-84
2024/03/06 18:19:58;;;;;;;15.97;11.77;;;;;;;10.36;67.38;99460.72;5093045;28;43144;-84
2024/03/06 18:22:27;;;;;;;20.47;13.80;;;;;;;10.41;66.84;99463.94;5093408;28;43304;-79
2024/03/06 18:24:54;;;;;;;20.27;12.90;;;;;;;10.44;67.00;99466.44;5092464;28;43583;-83
2024/03/06 18:27:22;;;;;;;19.80;12.27;;;;;;;10.46;66.88;99466.38;5091891;28;39031;-77
2024/03/06 18:29:49;;;;;;;16.80;11.80;;;;;;;10.49;66.77;99468.00;5092959;28;42127;-81
2024/03/06 18:32:17;;;;;;;17.87;12.00;;;;;;;10.15;66.68;99405.31;5075003;28;41679;-79
2024/03/06 18:34:46;;;;;;;16.27;11.33;;;;;;;10.54;66.85;99473.91;5092589;28;42106;-81
2024/03/06 18:37:14;;;;;;;15.80;10.73;;;;;;;10.58;66.22;99472.81;5092219;28;40687;-86
2024/03/06 18:39:44;;;;;;;15.10;11.77;;;;;;;10.61;66.40;99477.97;5092703;28;40972;-84
2024/03/06 18:42:11;;;;;;;16.23;11.27;;;;;;;10.63;66.52;99481.38;5075062;28;42585;-81
2024/03/06 18:44:39;;;;;;;17.27;12.20;;;;;;;10.48;66.49;99450.41;5092236;28;41114;-81
2024/03/06 18:47:07;;;;;;;20.57;13.27;;;;;;;10.57;66.53;99469.31;5074934;28;41958;-83
2024/03/06 18:49:35;;;;;;;17.50;12.23;;;;;;;10.49;66.21;99452.97;5075524;28;40779;-80
2024/03/06 18:52:02;;;;;;;16.70;11.70;;;;;;;10.66;66.08;99475.91;5092080;28;42980;-86
2024/03/06 18:54:30;;;;;;;18.83;13.03;;;;;;;10.66;66.37;99478.56;5091900;28;43228;-84
2024/03/06 18:56:59;;;;;;;19.60;13.40;;;;;;;10.64;66.88;99477.78;5091615;28;40207;-77
2024/03/06 18:59:26;;;;;;;21.17;13.80;;;;;;;10.55;66.62;99467.66;5092226;28;41895;-78
2024/03/06 19:01:54;;;;;;;18.33;13.80;;;;;;;10.65;66.77;99484.78;5093241;28;42700;-85
2024/03/06 19:04:22;;;;;;;21.87;15.33;;;;;;;10.61;66.94;99486.75;5074591;28;43264;-88
2024/03/06 19:06:50;;;;;;;20.73;14.10;;;;;;;10.62;66.88;99491.13;5094102;28;41022;-79
2024/03/06 19:09:18;;;;;;;21.77;14.03;;;;;;;10.61;66.87;99494.72;5100647;28;41332;-78
2024/03/06 19:11:47;;;;;;;18.57;13.80;;;;;;;10.54;66.60;99487.16;5093981;28;42863;-88
2024/03/06 19:14:16;;;;;;;22.93;16.23;;;;;;;10.57;67.06;99485.19;5092713;28;42187;-81
2024/03/06 19:16:44;;;;;;;21.33;15.40;;;;;;;10.59;66.79;99488.63;5091952;28;40203;-83
2024/03/06 19:19:12;;;;;;;23.43;14.47;;;;;;;10.58;66.55;99489.56;5092751;28;42236;-82
2024/03/06 19:21:40;;;;;;;20.87;14.20;;;;;;;10.55;66.98;99489.72;5092587;28;43479;-80
